Adolfo E. Carranza, Argentina
Current Conditions -  °F | °C
As of 5:00 AM on Monday 24 Nov 2014 (Local Time) from SACO Reporting Station
Clear Clear  
Wind Chill: 59°   Ceiling: Unl
Heat Index: 59°   Visibility: 6mi
Dew Point: 55°   Wind: 3mph
Humidity: 88%   Direction: 70°ENE
Pressure: 29.65"   Gusts: NA
Location:  29.48°S, 65.59°W
Report Text: SACO 240800Z 07003KT CAVOK 15/13 Q1004
Loading
Personal Weather Stations






























Interactive Weather Map New forecast layout! Learn more

10-Day Weather Forecast

Advertisements
Track Severe Weather on mobile